Terminal Aerodrome Forecast
Issued by NWS

Current Version | Previous Version | Text Only | Print | Product List | Glossary On
Versions: 1 2 3 4 5 6 7 8 9 10 11 12 13 14 15 16 17 18 19 20 21
000
FTUS44 KLZK 060531
TAFBPK
TAF
KBPK 060531Z 0606/0706 VRB03KT P6SM -RA BKN006 OVC015
      TEMPO 0606/0610 2SM -SHRA BR OVC004
     FM061100 32010G18KT 2SM BR OVC015
      TEMPO 0612/0616 2SM -DZ BR
     FM061800 35008G15KT P6SM SCT015 BKN250=

USA.gov is the U.S. government's official web portal to all federal, state and local government web resources and services.